Time;durP1;ratioP1;P1;durP2;ratioP2;P2;SDS_P1;SDS_P2;PMS_P1;PMS_P2;Temp;Humidity;BMP_temperature;BMP_pressure;BME280_temperature;BME280_humidity;BME280_pressure;Samples;Min_cycle;Max_cycle;Signal;HPM_P1;HPM_P2
2021/11/09 00:00:48;;;;;;;7.38;6.45;;;12.40;99.90;;;;;;5134478;27;20575;-64
2021/11/09 00:03:15;;;;;;;10.15;7.53;;;12.40;99.90;;;;;;5134961;27;20220;-65
2021/11/09 00:05:51;;;;;;;17.15;7.70;;;12.40;99.90;;;;;;5126588;27;20229;-64
2021/11/09 00:08:20;;;;;;;9.82;6.45;;;12.40;99.90;;;;;;5134411;27;20266;-65
2021/11/09 00:10:48;;;;;;;12.15;7.03;;;12.50;99.90;;;;;;5134195;27;20221;-65
2021/11/09 00:13:16;;;;;;;9.90;7.15;;;12.40;99.90;;;;;;5134434;27;20218;-65
2021/11/09 00:15:44;;;;;;;12.00;7.55;;;12.50;99.90;;;;;;5134282;27;20251;-64
2021/11/09 00:18:11;;;;;;;11.43;7.07;;;12.40;99.90;;;;;;5129336;27;20229;-64
2021/11/09 00:20:40;;;;;;;9.80;7.35;;;12.40;99.90;;;;;;5133840;27;20226;-65
2021/11/09 00:23:09;;;;;;;13.10;6.78;;;12.40;99.90;;;;;;5134388;27;20948;-65
2021/11/09 00:25:38;;;;;;;9.95;7.65;;;12.40;99.90;;;;;;5133882;27;20234;-65
2021/11/09 00:28:06;;;;;;;8.85;7.95;;;12.40;99.90;;;;;;5134053;27;20224;-65
2021/11/09 00:30:34;;;;;;;16.02;9.82;;;12.40;99.90;;;;;;5133559;27;20230;-65
2021/11/09 00:33:02;;;;;;;9.32;7.82;;;12.40;99.90;;;;;;5133773;27;20226;-65
2021/11/09 00:35:32;;;;;;;17.17;10.45;;;12.30;99.90;;;;;;5131572;27;20231;-65
2021/11/09 00:38:06;;;;;;;12.07;8.50;;;12.30;99.90;;;;;;5131674;27;21253;-65
2021/11/09 00:40:36;;;;;;;15.18;8.13;;;12.40;99.90;;;;;;5131294;27;20249;-65
2021/11/09 00:43:06;;;;;;;10.45;6.95;;;12.30;99.90;;;;;;5132057;27;20540;-65
2021/11/09 00:45:34;;;;;;;9.23;7.47;;;12.30;99.90;;;;;;5133319;27;20222;-65
2021/11/09 00:48:02;;;;;;;11.10;8.15;;;12.30;99.90;;;;;;5130501;27;20226;-65
2021/11/09 00:50:30;;;;;;;15.82;7.70;;;12.30;99.90;;;;;;5133801;27;20226;-65
2021/11/09 00:52:57;;;;;;;14.80;7.78;;;12.30;99.90;;;;;;5132781;27;20226;-65
2021/11/09 00:55:25;;;;;;;10.60;7.82;;;12.30;99.90;;;;;;5134000;27;20695;-65
2021/11/09 00:57:54;;;;;;;11.52;8.07;;;12.20;99.90;;;;;;5133622;27;20222;-65
2021/11/09 01:00:24;;;;;;;10.98;8.20;;;12.20;99.90;;;;;;5133844;27;20222;-65
2021/11/09 01:02:51;;;;;;;9.10;7.15;;;12.30;99.90;;;;;;5133111;27;20218;-65
2021/11/09 01:05:23;;;;;;;7.72;6.63;;;12.30;99.90;;;;;;5132975;27;20218;-65
2021/11/09 01:07:51;;;;;;;10.40;7.65;;;12.30;99.90;;;;;;5124763;27;20229;-65
2021/11/09 01:10:18;;;;;;;10.55;7.50;;;12.30;99.90;;;;;;5130251;27;20222;-65
2021/11/09 01:12:46;;;;;;;9.75;7.35;;;12.30;99.90;;;;;;5130981;27;20261;-65
2021/11/09 01:15:19;;;;;;;7.70;6.38;;;12.30;99.90;;;;;;5131746;27;20233;-65
2021/11/09 01:17:46;;;;;;;9.18;6.53;;;12.30;99.90;;;;;;5131004;27;20225;-65
2021/11/09 01:20:16;;;;;;;9.07;7.22;;;12.30;99.90;;;;;;5131707;27;20226;-65
2021/11/09 01:22:45;;;;;;;7.82;6.07;;;12.30;99.90;;;;;;5132088;27;20222;-65
2021/11/09 01:25:12;;;;;;;12.02;7.85;;;12.30;99.90;;;;;;5132118;27;20221;-65
2021/11/09 01:27:39;;;;;;;12.68;8.27;;;12.30;99.90;;;;;;5132800;27;20291;-65
2021/11/09 01:30:08;;;;;;;7.90;7.10;;;12.20;99.90;;;;;;5133331;27;20226;-65
2021/11/09 01:32:37;;;;;;;11.90;8.15;;;12.20;99.90;;;;;;5133574;27;20240;-65
2021/11/09 01:35:05;;;;;;;9.55;7.03;;;12.20;99.90;;;;;;5133343;27;20214;-65
2021/11/09 01:37:33;;;;;;;12.45;8.13;;;12.20;99.90;;;;;;5114123;27;20228;-65
2021/11/09 01:40:00;;;;;;;11.52;7.25;;;12.20;99.90;;;;;;5116421;27;20226;-65
2021/11/09 01:42:27;;;;;;;9.73;8.60;;;12.20;99.90;;;;;;5134518;27;20600;-65
2021/11/09 01:44:54;;;;;;;9.63;7.22;;;12.30;99.90;;;;;;5136476;27;20232;-65
2021/11/09 01:47:21;;;;;;;8.40;7.60;;;12.30;99.90;;;;;;5137966;27;20237;-64
2021/11/09 01:49:50;;;;;;;7.38;6.75;;;12.30;99.90;;;;;;5137347;27;20233;-65
2021/11/09 01:52:17;;;;;;;13.60;7.60;;;12.40;99.90;;;;;;5137733;27;20236;-65
2021/11/09 01:54:44;;;;;;;12.40;7.18;;;12.30;99.90;;;;;;5137284;27;20220;-65
2021/11/09 01:57:11;;;;;;;8.57;7.68;;;12.30;99.90;;;;;;5137714;27;20225;-66
2021/11/09 01:59:38;;;;;;;10.50;8.07;;;12.30;99.90;;;;;;5137581;27;20237;-65
2021/11/09 02:02:05;;;;;;;8.57;6.72;;;12.30;99.90;;;;;;5137240;27;20245;-65
2021/11/09 02:04:33;;;;;;;9.27;6.40;;;12.30;99.90;;;;;;5137713;27;20228;-66
2021/11/09 02:07:01;;;;;;;12.23;7.70;;;12.30;99.90;;;;;;5137082;27;20240;-65
2021/11/09 02:09:28;;;;;;;11.63;7.00;;;12.30;99.90;;;;;;5137353;27;20252;-66
2021/11/09 02:11:55;;;;;;;6.55;5.95;;;12.30;99.90;;;;;;5137038;27;20632;-66
2021/11/09 02:14:22;;;;;;;7.63;6.25;;;12.30;99.90;;;;;;5137418;27;20572;-66
2021/11/09 02:16:51;;;;;;;7.82;6.25;;;12.30;99.90;;;;;;5137095;27;20691;-66
2021/11/09 02:19:18;;;;;;;7.53;6.30;;;12.30;99.90;;;;;;5137154;27;20236;-66
2021/11/09 02:21:46;;;;;;;6.50;5.90;;;12.30;99.90;;;;;;5137142;27;20230;-66
2021/11/09 02:24:13;;;;;;;7.93;7.10;;;12.30;99.90;;;;;;5136973;27;21397;-66
2021/11/09 02:26:40;;;;;;;7.25;6.55;;;12.40;99.90;;;;;;5136775;27;20226;-65
2021/11/09 02:29:08;;;;;;;8.05;7.25;;;12.40;99.90;;;;;;5136594;27;20226;-65
2021/11/09 02:31:35;;;;;;;8.15;7.22;;;12.50;99.90;;;;;;5136975;27;20222;-65
2021/11/09 02:34:02;;;;;;;9.57;8.57;;;12.50;99.90;;;;;;5136602;27;20226;-65
2021/11/09 02:36:29;;;;;;;7.70;7.00;;;12.60;99.90;;;;;;5136778;27;20221;-66
2021/11/09 02:38:58;;;;;;;8.95;6.65;;;12.60;99.90;;;;;;5136280;27;20222;-66
2021/11/09 02:41:25;;;;;;;7.18;6.50;;;12.60;99.90;;;;;;5136770;27;20304;-65
2021/11/09 02:43:53;;;;;;;7.80;6.90;;;12.70;99.90;;;;;;5136550;27;20680;-66
2021/11/09 02:49:11;;;;;;;6.70;5.60;;;12.70;99.90;;;;;;5132252;27;20295;-65
2021/11/09 02:51:41;;;;;;;6.47;5.25;;;12.80;99.90;;;;;;5136694;27;20250;-65
2021/11/09 02:54:16;;;;;;;6.13;5.25;;;12.80;99.90;;;;;;5135161;27;20747;-66
2021/11/09 02:56:46;;;;;;;4.90;4.50;;;12.80;99.90;;;;;;5117889;27;20218;-66
2021/11/09 03:01:56;;;;;;;8.73;6.85;;;12.80;99.90;;;;;;5127974;27;20294;-65
2021/11/09 03:04:32;;;;;;;9.15;7.05;;;12.80;99.90;;;;;;5115786;27;20231;-65
2021/11/09 03:07:03;;;;;;;8.60;6.60;;;12.90;99.90;;;;;;5115216;27;20223;-65
2021/11/09 03:09:43;;;;;;;8.32;7.43;;;12.90;99.90;;;;;;5114871;27;20605;-65
2021/11/09 03:12:11;;;;;;;10.40;7.78;;;12.90;99.90;;;;;;5114442;27;20248;-66
2021/11/09 03:14:41;;;;;;;10.82;7.68;;;12.90;99.90;;;;;;5114826;27;20594;-65
2021/11/09 03:17:15;;;;;;;11.60;8.05;;;13.00;99.90;;;;;;5132350;27;20221;-65
2021/11/09 03:19:45;;;;;;;13.20;8.63;;;13.00;99.90;;;;;;5132988;27;20241;-65
2021/11/09 03:44:23;;;;;;;12.73;9.20;;;12.90;99.90;;;;;;5115190;27;20233;-65
2021/11/09 03:46:53;;;;;;;12.48;9.07;;;12.90;99.90;;;;;;5114877;27;20904;-65
2021/11/09 03:49:23;;;;;;;10.35;9.13;;;12.80;99.90;;;;;;5127996;27;20245;-65
2021/11/09 03:51:51;;;;;;;13.32;10.38;;;12.80;99.90;;;;;;5134941;27;20224;-65
2021/11/09 03:54:20;;;;;;;10.98;9.02;;;12.80;99.90;;;;;;5135247;27;20217;-65
2021/11/09 03:56:52;;;;;;;15.35;10.60;;;12.80;99.90;;;;;;5135012;27;20222;-65
2021/11/09 03:59:23;;;;;;;11.23;9.93;;;12.80;99.90;;;;;;5135231;27;20218;-65
2021/11/09 04:02:03;;;;;;;14.00;8.55;;;12.80;99.90;;;;;;5122504;27;20680;-65
2021/11/09 04:04:37;;;;;;;9.77;8.30;;;12.80;99.90;;;;;;5114214;27;20237;-65
2021/11/09 04:07:11;;;;;;;16.98;11.70;;;12.80;99.90;;;;;;5113507;27;20223;-65
2021/11/09 04:09:48;;;;;;;18.70;11.52;;;12.80;99.90;;;;;;5114199;27;20569;-65
2021/11/09 04:12:28;;;;;;;24.50;15.88;;;12.80;99.90;;;;;;5114356;27;20230;-65
2021/11/09 04:15:05;;;;;;;16.45;12.13;;;12.90;99.90;;;;;;5114363;27;20609;-65
2021/11/09 04:17:44;;;;;;;16.38;9.82;;;12.80;99.90;;;;;;5113997;27;20222;-65
2021/11/09 04:20:16;;;;;;;27.98;19.05;;;12.80;99.90;;;;;;5114215;27;20310;-65
2021/11/09 04:28:08;;;;;;;14.25;10.82;;;12.90;99.90;;;;;;5111082;27;20228;-65
2021/11/09 05:01:36;;;;;;;14.95;9.68;;;12.80;99.90;;;;;;5126473;27;20217;-65
2021/11/09 05:09:34;;;;;;;14.73;11.15;;;12.80;99.90;;;;;;5113357;27;20237;-65
2021/11/09 05:12:01;;;;;;;15.02;10.80;;;12.80;99.90;;;;;;5112842;27;20239;-65
2021/11/09 05:14:30;;;;;;;16.55;9.57;;;12.80;99.90;;;;;;5113613;27;20227;-65
2021/11/09 05:16:58;;;;;;;20.80;13.48;;;12.80;99.90;;;;;;5112602;27;20218;-66
2021/11/09 05:19:26;;;;;;;17.92;11.98;;;12.80;99.90;;;;;;5113392;27;20588;-65
2021/11/09 05:21:53;;;;;;;11.15;9.35;;;12.80;99.90;;;;;;5112967;27;20249;-65
2021/11/09 05:24:20;;;;;;;14.18;10.35;;;12.80;99.90;;;;;;5113228;27;20226;-66
2021/11/09 05:26:48;;;;;;;15.45;8.38;;;12.80;99.90;;;;;;5112718;27;20328;-65
2021/11/09 05:29:16;;;;;;;18.92;11.23;;;12.80;99.90;;;;;;5113179;27;20694;-65
2021/11/09 05:31:43;;;;;;;12.88;9.65;;;12.80;99.90;;;;;;5113125;27;20229;-66
2021/11/09 05:34:13;;;;;;;12.68;9.98;;;12.80;99.90;;;;;;5112741;27;20238;-65
2021/11/09 05:36:42;;;;;;;15.82;10.35;;;12.80;99.90;;;;;;5113203;27;20211;-65
2021/11/09 05:39:16;;;;;;;14.02;9.95;;;12.80;99.90;;;;;;5112384;27;20544;-65
2021/11/09 05:41:44;;;;;;;18.08;10.20;;;12.90;99.90;;;;;;5113156;27;20222;-65
2021/11/09 05:44:11;;;;;;;18.38;11.90;;;12.90;99.90;;;;;;5112736;27;20725;-65
2021/11/09 05:46:39;;;;;;;15.67;11.70;;;12.90;99.90;;;;;;5113089;27;20541;-65
2021/11/09 05:49:07;;;;;;;27.75;18.63;;;12.90;99.90;;;;;;5123694;27;20812;-66
2021/11/09 05:51:36;;;;;;;12.40;9.30;;;12.90;99.90;;;;;;5133648;27;20229;-65
2021/11/09 05:54:04;;;;;;;14.07;10.32;;;13.00;99.90;;;;;;5132903;27;20250;-65
2021/11/09 05:56:31;;;;;;;17.20;12.85;;;13.00;99.90;;;;;;5133103;27;20225;-65
2021/11/09 05:58:59;;;;;;;13.02;10.57;;;13.00;99.90;;;;;;5133139;27;20286;-65
2021/11/09 06:01:26;;;;;;;16.80;12.85;;;13.00;99.90;;;;;;5124762;27;20253;-65
2021/11/09 06:03:53;;;;;;;14.45;12.70;;;13.00;99.90;;;;;;5112583;27;20261;-65
2021/11/09 06:06:20;;;;;;;19.50;14.85;;;12.90;99.90;;;;;;5112965;27;20227;-65
2021/11/09 06:08:50;;;;;;;15.75;13.07;;;12.90;99.90;;;;;;5112696;27;20219;-66
2021/11/09 06:11:17;;;;;;;15.93;11.93;;;12.90;99.90;;;;;;5112528;27;20214;-65
2021/11/09 06:13:44;;;;;;;20.75;14.98;;;12.90;99.90;;;;;;5112978;27;20689;-66
2021/11/09 06:16:11;;;;;;;15.80;11.95;;;12.90;99.90;;;;;;5112232;27;20287;-66
2021/11/09 06:18:38;;;;;;;17.40;12.50;;;12.90;99.90;;;;;;5112789;27;20699;-66
2021/11/09 06:21:05;;;;;;;11.60;10.40;;;12.90;99.90;;;;;;5112507;27;20550;-65
2021/11/09 06:23:32;;;;;;;18.73;13.40;;;12.90;99.90;;;;;;5112556;27;20677;-65
2021/11/09 06:26:02;;;;;;;26.13;17.25;;;12.90;99.90;;;;;;5112126;27;20288;-65
2021/11/09 06:28:29;;;;;;;21.13;14.13;;;12.90;99.90;;;;;;5112788;27;20226;-65
2021/11/09 06:30:56;;;;;;;19.00;12.90;;;12.90;99.90;;;;;;5115253;27;20510;-66
2021/11/09 06:33:24;;;;;;;18.92;11.75;;;13.00;99.90;;;;;;5116293;27;20712;-65
2021/11/09 06:35:51;;;;;;;13.48;10.35;;;13.00;99.90;;;;;;5116615;27;20219;-65
2021/11/09 06:38:19;;;;;;;16.10;11.30;;;13.00;99.90;;;;;;5115686;27;20222;-65
2021/11/09 06:40:46;;;;;;;15.57;12.07;;;13.00;99.90;;;;;;5116297;27;20246;-64
2021/11/09 06:43:15;;;;;;;13.75;9.80;;;13.00;99.90;;;;;;5115901;27;20214;-64
2021/11/09 06:45:43;;;;;;;14.05;10.40;;;12.90;99.90;;;;;;5116146;27;20305;-64
2021/11/09 06:48:10;;;;;;;17.50;10.80;;;13.00;99.90;;;;;;5118892;27;20218;-64
2021/11/09 06:50:37;;;;;;;19.63;9.30;;;13.00;99.90;;;;;;5136755;27;20258;-64
2021/11/09 06:53:05;;;;;;;17.02;10.27;;;12.90;99.90;;;;;;5135992;27;20671;-65
2021/11/09 06:55:34;;;;;;;19.08;10.27;;;12.90;99.90;;;;;;5136560;27;20222;-65
2021/11/09 06:58:01;;;;;;;19.23;9.38;;;12.90;99.90;;;;;;5136129;27;20214;-65
2021/11/09 07:00:29;;;;;;;16.23;8.82;;;12.90;99.90;;;;;;5135768;27;20294;-65
2021/11/09 07:02:56;;;;;;;19.83;9.13;;;13.00;99.90;;;;;;5115499;27;20227;-65
2021/11/09 07:05:23;;;;;;;18.27;9.63;;;13.00;99.90;;;;;;5115709;27;20223;-65
2021/11/09 07:07:51;;;;;;;13.05;8.52;;;12.90;99.90;;;;;;5115701;27;20233;-65
2021/11/09 07:10:17;;;;;;;16.63;9.13;;;12.90;99.90;;;;;;5115319;27;20631;-65
2021/11/09 07:12:45;;;;;;;13.35;9.32;;;12.90;99.90;;;;;;5115424;27;20715;-65
2021/11/09 07:15:13;;;;;;;12.27;8.95;;;12.90;99.90;;;;;;5115046;27;20558;-65
2021/11/09 07:17:41;;;;;;;17.58;10.75;;;12.90;99.90;;;;;;5115645;27;20676;-65
2021/11/09 07:20:11;;;;;;;18.75;10.57;;;12.90;99.90;;;;;;5115116;27;20250;-65
2021/11/09 07:22:38;;;;;;;14.75;9.90;;;12.90;99.90;;;;;;5115572;27;20306;-65
2021/11/09 07:25:07;;;;;;;24.27;19.90;;;12.90;99.90;;;;;;5114986;27;20695;-65
2021/11/09 07:27:34;;;;;;;23.35;16.63;;;12.90;99.90;;;;;;5115277;27;20238;-66
2021/11/09 07:30:03;;;;;;;18.15;13.70;;;12.90;99.90;;;;;;5114821;27;20226;-66
2021/11/09 07:32:29;;;;;;;17.75;9.68;;;12.90;99.90;;;;;;5115571;27;20669;-65
2021/11/09 07:34:58;;;;;;;19.00;10.95;;;12.90;99.90;;;;;;5115235;27;20238;-66
2021/11/09 07:37:28;;;;;;;20.45;10.15;;;12.90;99.90;;;;;;5114834;27;20244;-65
2021/11/09 07:39:55;;;;;;;20.60;8.93;;;12.90;99.90;;;;;;5115010;27;20233;-65
2021/11/09 07:42:22;;;;;;;12.40;9.18;;;12.90;99.90;;;;;;5114703;27;20223;-65
2021/11/09 07:44:50;;;;;;;13.45;9.20;;;12.90;99.90;;;;;;5115011;27;20226;-65
2021/11/09 07:47:17;;;;;;;14.25;9.55;;;12.90;99.90;;;;;;5114605;27;20553;-65
2021/11/09 07:49:44;;;;;;;20.98;14.07;;;12.90;99.90;;;;;;5131429;27;20290;-65
2021/11/09 07:52:12;;;;;;;16.65;11.70;;;12.90;99.90;;;;;;5134981;27;20222;-66
2021/11/09 07:54:44;;;;;;;20.50;11.10;;;13.00;99.90;;;;;;5131270;27;20279;-64
2021/11/09 07:57:12;;;;;;;21.52;12.25;;;12.90;99.90;;;;;;5120153;27;20209;-65
2021/11/09 07:59:45;;;;;;;42.00;32.30;;;12.90;99.90;;;;;;5135208;27;20222;-66
2021/11/09 08:02:16;;;;;;;63.40;50.03;;;12.90;99.90;;;;;;5119481;27;20215;-66
2021/11/09 08:04:48;;;;;;;39.35;29.35;;;12.90;99.90;;;;;;5114941;27;20222;-65
2021/11/09 08:07:18;;;;;;;19.33;15.35;;;12.90;99.90;;;;;;5114181;27;20677;-66
2021/11/09 08:09:46;;;;;;;20.20;15.90;;;12.90;99.90;;;;;;5114412;27;20234;-66
2021/11/09 08:12:12;;;;;;;17.10;12.00;;;12.90;99.90;;;;;;5114131;27;20222;-66
2021/11/09 08:14:39;;;;;;;14.15;10.40;;;12.90;99.90;;;;;;5114304;27;20460;-66
2021/11/09 08:17:07;;;;;;;18.42;10.52;;;12.90;99.90;;;;;;5114044;27;20672;-66
2021/11/09 08:19:34;;;;;;;15.25;10.10;;;12.90;99.90;;;;;;5114465;27;20226;-66
2021/11/09 08:22:02;;;;;;;14.32;9.95;;;13.00;99.90;;;;;;5114251;27;20225;-66
2021/11/09 08:24:31;;;;;;;15.05;10.68;;;13.00;99.90;;;;;;5113882;27;20226;-66
2021/11/09 08:27:03;;;;;;;13.65;9.95;;;13.00;99.90;;;;;;5114012;27;20249;-65
2021/11/09 08:29:29;;;;;;;15.23;10.63;;;13.10;99.90;;;;;;5113756;27;20668;-66
2021/11/09 08:31:58;;;;;;;16.15;11.60;;;13.10;99.90;;;;;;5113975;27;20222;-66
2021/11/09 08:34:27;;;;;;;14.45;11.20;;;13.10;99.90;;;;;;5113603;27;20234;-66
2021/11/09 08:36:55;;;;;;;27.08;18.08;;;13.10;99.90;;;;;;5113896;27;20215;-66
2021/11/09 08:39:28;;;;;;;20.75;12.05;;;13.10;99.90;;;;;;5128738;27;20276;-65
2021/11/09 08:42:10;;;;;;;16.20;11.27;;;13.00;99.90;;;;;;5134467;27;20722;-66
2021/11/09 08:44:41;;;;;;;23.20;16.40;;;12.90;99.90;;;;;;5134070;27;20340;-66
2021/11/09 08:47:08;;;;;;;19.60;14.18;;;12.90;99.90;;;;;;5134335;27;20232;-65
2021/11/09 08:49:35;;;;;;;26.58;18.13;;;12.90;99.90;;;;;;5133626;27;20222;-66
2021/11/09 08:52:09;;;;;;;18.75;13.07;;;12.90;99.90;;;;;;5133700;27;20221;-66
2021/11/09 08:54:36;;;;;;;13.40;11.02;;;13.00;99.90;;;;;;5133593;27;20257;-66
2021/11/09 08:57:19;;;;;;;15.82;11.60;;;13.00;99.90;;;;;;5134233;27;20555;-66
2021/11/09 09:05:16;;;;;;;15.88;10.75;;;13.00;99.90;;;;;;5113674;27;20226;-66
2021/11/09 09:07:44;;;;;;;20.70;11.77;;;13.00;99.90;;;;;;5113146;27;20222;-66
2021/11/09 09:10:13;;;;;;;17.15;11.25;;;13.00;99.90;;;;;;5113335;27;20226;-66
2021/11/09 09:12:43;;;;;;;14.93;11.20;;;13.10;99.90;;;;;;5113056;27;20215;-66
2021/11/09 09:15:12;;;;;;;15.23;10.27;;;13.10;99.90;;;;;;5113365;27;20465;-66
2021/11/09 09:17:40;;;;;;;17.45;12.48;;;13.00;99.90;;;;;;5112885;27;20230;-66
2021/11/09 09:20:13;;;;;;;20.17;12.38;;;13.00;99.90;;;;;;5113372;27;20427;-66
2021/11/09 09:22:43;;;;;;;16.42;12.48;;;13.10;99.90;;;;;;5112964;27;20234;-65
2021/11/09 09:25:24;;;;;;;24.48;17.95;;;13.20;99.90;;;;;;5113140;27;20268;-65
2021/11/09 09:55:24;;;;;;;13.38;9.07;;;13.50;99.90;;;;;;5124068;27;20297;-65
2021/11/09 09:57:51;;;;;;;11.30;8.20;;;13.60;99.90;;;;;;5133192;27;20662;-66
2021/11/09 10:00:20;;;;;;;13.43;8.10;;;13.60;99.90;;;;;;5133352;27;20525;-65
2021/11/09 10:02:51;;;;;;;12.20;8.67;;;13.70;99.90;;;;;;5113195;27;20778;-66
2021/11/09 10:05:20;;;;;;;15.15;8.60;;;13.70;99.90;;;;;;5116637;27;20484;-65
2021/11/09 10:07:51;;;;;;;8.43;6.90;;;13.70;99.90;;;;;;5116852;27;20219;-65
2021/11/09 10:10:20;;;;;;;10.60;7.00;;;13.80;99.90;;;;;;5116357;27;20470;-65
2021/11/09 10:12:54;;;;;;;11.00;7.23;;;13.80;99.90;;;;;;5116988;27;20472;-65
2021/11/09 10:15:26;;;;;;;16.13;9.10;;;13.90;99.90;;;;;;5116399;27;21197;-64
2021/11/09 10:17:56;;;;;;;8.90;7.20;;;13.90;99.90;;;;;;5116732;27;20464;-65
2021/11/09 10:20:25;;;;;;;13.73;9.10;;;13.90;99.90;;;;;;5116492;27;20499;-65
2021/11/09 10:22:55;;;;;;;13.00;7.20;;;13.90;99.90;;;;;;5116724;27;20468;-65
2021/11/09 10:25:24;;;;;;;22.37;9.10;;;14.00;99.90;;;;;;5115807;27;20464;-64
2021/11/09 10:27:54;;;;;;;10.30;6.30;;;14.10;99.90;;;;;;5116585;27;20467;-67
2021/11/09 10:30:26;;;;;;;15.20;9.23;;;14.10;99.90;;;;;;5116070;27;20460;-65
2021/11/09 10:32:54;;;;;;;13.50;7.90;;;14.10;99.90;;;;;;5116588;27;20456;-65
2021/11/09 10:35:24;;;;;;;10.10;7.47;;;14.10;99.90;;;;;;5115728;27;20464;-65
2021/11/09 10:37:52;;;;;;;9.97;7.57;;;14.10;99.90;;;;;;5116152;27;20517;-65
2021/11/09 10:40:22;;;;;;;10.30;8.80;;;14.20;99.90;;;;;;5115973;27;20814;-65
2021/11/09 10:42:53;;;;;;;14.30;7.70;;;14.20;99.90;;;;;;5116245;27;20468;-65
2021/11/09 10:45:24;;;;;;;13.90;7.20;;;14.30;99.90;;;;;;5115639;27;20460;-65
2021/11/09 10:47:53;;;;;;;9.90;6.97;;;14.30;99.90;;;;;;5116569;27;20464;-65
2021/11/09 10:50:24;;;;;;;12.03;8.10;;;14.30;99.90;;;;;;5136277;27;21823;-65
2021/11/09 10:53:01;;;;;;;10.90;9.00;;;14.30;99.90;;;;;;5136579;27;20456;-65
2021/11/09 10:55:34;;;;;;;12.40;8.47;;;14.30;99.90;;;;;;5125028;27;21225;-65
2021/11/09 10:58:16;;;;;;;17.93;14.57;;;14.40;99.90;;;;;;5128906;27;20458;-65
2021/11/09 11:03:50;;;;;;;9.63;8.63;;;14.40;99.90;;;;;;5114887;27;20543;-65
2021/11/09 11:06:20;;;;;;;10.60;8.50;;;14.40;99.90;;;;;;5115720;27;20464;-65
2021/11/09 11:08:48;;;;;;;15.47;7.90;;;14.50;99.90;;;;;;5115230;27;20462;-65
2021/11/09 11:11:21;;;;;;;7.23;6.50;;;14.50;99.90;;;;;;5115723;27;20459;-66
2021/11/09 11:13:50;;;;;;;10.07;7.10;;;14.50;99.90;;;;;;5115432;27;20449;-65
2021/11/09 11:16:19;;;;;;;22.00;18.23;;;14.50;99.90;;;;;;5114938;27;20852;-65
2021/11/09 11:18:48;;;;;;;13.27;10.93;;;14.40;99.90;;;;;;5114995;27;20977;-65
2021/11/09 11:21:18;;;;;;;11.33;8.10;;;14.50;99.90;;;;;;5115394;27;20557;-66
2021/11/09 11:23:46;;;;;;;9.77;8.20;;;14.50;99.90;;;;;;5115116;27;20779;-65
2021/11/09 11:26:14;;;;;;;9.70;7.97;;;14.50;99.90;;;;;;5115185;27;20460;-65
2021/11/09 11:28:43;;;;;;;7.90;6.87;;;14.50;99.90;;;;;;5115082;27;20468;-66
2021/11/09 11:31:12;;;;;;;10.00;6.37;;;14.60;99.90;;;;;;5119557;27;20921;-65
2021/11/09 11:33:41;;;;;;;7.37;5.47;;;14.60;99.90;;;;;;5135580;27;21274;-65
2021/11/09 11:36:10;;;;;;;12.13;5.63;;;14.60;99.90;;;;;;5135777;27;20467;-64
2021/11/09 11:38:41;;;;;;;7.27;4.90;;;14.60;99.90;;;;;;5115550;27;20479;-64
2021/11/09 11:41:08;;;;;;;19.60;16.47;;;14.70;99.90;;;;;;5115164;27;20464;-65
2021/11/09 11:43:57;;;;;;;15.10;12.53;;;14.70;99.90;;;;;;5114703;27;20467;-64
2021/11/09 11:46:52;;;;;;;16.20;10.03;;;14.70;99.90;;;;;;5114978;27;20453;-64
2021/11/09 11:49:23;;;;;;;10.63;9.60;;;14.70;99.90;;;;;;5127732;27;20463;-64
2021/11/09 11:52:09;;;;;;;8.23;7.43;;;14.70;99.90;;;;;;5135500;27;20456;-65
2021/11/09 11:54:48;;;;;;;10.83;7.63;;;14.70;99.90;;;;;;5135052;27;20463;-65
2021/11/09 11:57:38;;;;;;;10.77;5.97;;;14.70;99.90;;;;;;5135000;27;20821;-66
2021/11/09 12:00:25;;;;;;;6.10;4.20;;;14.80;99.90;;;;;;5135363;27;20472;-66
2021/11/09 12:02:52;;;;;;;7.10;5.50;;;14.70;98.50;;;;;;5114834;27;20457;-66
2021/11/09 12:05:37;;;;;;;8.83;7.90;;;14.70;98.30;;;;;;5114577;27;20460;-66
2021/11/09 12:08:07;;;;;;;6.53;4.80;;;14.70;98.30;;;;;;5114008;27;20463;-66
2021/11/09 12:10:42;;;;;;;9.20;7.23;;;14.70;98.30;;;;;;5114457;27;20536;-66
2021/11/09 12:13:10;;;;;;;8.50;4.97;;;14.80;98.80;;;;;;5113993;27;20554;-66
2021/11/09 12:15:54;;;;;;;9.97;3.63;;;14.80;98.40;;;;;;5114357;27;20484;-66
2021/11/09 12:18:41;;;;;;;7.23;3.90;;;14.70;97.80;;;;;;5114089;27;20591;-66
2021/11/09 12:21:34;;;;;;;3.33;2.90;;;14.70;97.90;;;;;;5113870;27;20478;-66
2021/11/09 12:24:25;;;;;;;8.43;3.43;;;14.70;98.00;;;;;;5113955;27;20464;-66
2021/11/09 12:26:58;;;;;;;6.57;3.77;;;14.70;97.80;;;;;;5098382;27;20982;-66
2021/11/09 12:29:50;;;;;;;5.90;2.87;;;14.60;97.90;;;;;;5113881;27;21058;-66
2021/11/09 12:32:35;;;;;;;5.03;2.80;;;14.60;98.10;;;;;;5112371;27;20486;-66
2021/11/09 12:35:10;;;;;;;7.73;2.80;;;14.60;98.40;;;;;;5134296;27;20464;-66
2021/11/09 12:37:43;;;;;;;5.57;2.70;;;14.60;98.20;;;;;;5123383;27;20464;-66
2021/11/09 12:40:26;;;;;;;5.87;4.53;;;14.60;98.20;;;;;;5113375;27;20468;-66
2021/11/09 12:43:09;;;;;;;14.33;10.40;;;14.50;98.20;;;;;;5112752;27;20972;-66
2021/11/09 12:45:38;;;;;;;31.70;27.00;;;14.60;98.60;;;;;;5114056;27;20491;-66
2021/11/09 12:48:08;;;;;;;17.63;14.57;;;14.60;98.70;;;;;;5115763;27;20476;-66
2021/11/09 12:50:44;;;;;;;16.27;14.23;;;14.60;98.40;;;;;;5134119;27;20520;-66
2021/11/09 12:53:14;;;;;;;17.70;11.93;;;14.60;98.50;;;;;;5133976;27;21242;-66
2021/11/09 12:55:42;;;;;;;7.43;6.60;;;14.60;98.80;;;;;;5121410;27;20471;-66
2021/11/09 12:58:17;;;;;;;8.20;5.57;;;14.50;98.30;;;;;;5127115;27;20459;-67
2021/11/09 13:00:50;;;;;;;5.40;3.30;;;14.50;98.50;;;;;;5131132;27;20479;-66
2021/11/09 13:03:27;;;;;;;6.90;2.90;;;14.50;98.50;;;;;;5113282;27;20463;-66
2021/11/09 13:06:01;;;;;;;2.90;2.10;;;14.50;98.50;;;;;;5113033;27;20486;-66
2021/11/09 13:08:41;;;;;;;4.50;2.50;;;14.50;98.20;;;;;;5113528;27;20555;-66
2021/11/09 13:11:31;;;;;;;5.43;2.73;;;14.50;98.50;;;;;;5113057;27;20804;-66
2021/11/09 13:14:07;;;;;;;6.33;3.50;;;14.50;98.70;;;;;;5113150;27;20459;-66
2021/11/09 13:16:35;;;;;;;5.30;3.10;;;14.50;99.10;;;;;;5113241;27;20471;-66
2021/11/09 13:19:07;;;;;;;4.77;4.33;;;14.50;99.50;;;;;;5112648;27;20464;-66
2021/11/09 13:21:34;;;;;;;6.60;2.97;;;14.50;99.60;;;;;;5113361;27;20477;-66
2021/11/09 13:24:04;;;;;;;4.18;2.50;;;14.50;99.00;;;;;;5112585;27;20521;-66
2021/11/09 13:26:32;;;;;;;8.57;2.70;;;14.50;98.90;;;;;;5112968;27;20229;-66
2021/11/09 13:29:06;;;;;;;4.50;3.67;;;14.50;98.80;;;;;;5112493;27;20539;-66
2021/11/09 13:31:35;;;;;;;7.20;5.87;;;14.50;98.80;;;;;;5112836;27;20464;-66
2021/11/09 13:34:03;;;;;;;8.40;6.37;;;14.50;99.00;;;;;;5112194;27;20471;-66
2021/11/09 13:36:30;;;;;;;7.23;6.40;;;14.50;99.20;;;;;;5112676;27;20954;-66
2021/11/09 13:38:58;;;;;;;11.87;8.20;;;14.60;99.30;;;;;;5112109;27;20464;-66
2021/11/09 13:41:31;;;;;;;15.97;12.23;;;14.50;99.20;;;;;;5112938;27;20773;-66
2021/11/09 13:44:02;;;;;;;8.87;5.90;;;14.60;99.60;;;;;;5112574;27;20986;-67
2021/11/09 13:46:31;;;;;;;5.17;3.83;;;14.60;99.50;;;;;;5112816;27;20486;-67
2021/11/09 13:49:01;;;;;;;6.63;4.83;;;14.60;99.20;;;;;;5122242;27;20460;-67
2021/11/09 13:51:31;;;;;;;5.47;3.33;;;14.60;99.20;;;;;;5133586;27;20801;-67
2021/11/09 13:54:01;;;;;;;8.97;6.30;;;14.70;99.20;;;;;;5132789;27;20475;-66
2021/11/09 13:56:30;;;;;;;18.47;12.43;;;14.70;99.40;;;;;;5113826;27;20468;-66
2021/11/09 13:58:59;;;;;;;24.50;15.93;;;14.70;99.30;;;;;;5112082;27;20472;-67
2021/11/09 14:01:41;;;;;;;21.87;15.97;;;14.60;99.10;;;;;;5112872;27;20464;-67
2021/11/09 14:04:21;;;;;;;22.73;15.67;;;14.60;99.30;;;;;;5112272;27;20464;-67
2021/11/09 14:10:08;;;;;;;16.63;10.17;;;14.60;99.30;;;;;;5112500;27;20478;-67
2021/11/09 14:18:19;;;;;;;15.90;8.37;;;14.70;99.30;;;;;;5073034;27;20568;-66
2021/11/09 14:20:55;;;;;;;12.70;8.03;;;14.70;99.40;;;;;;5112796;27;20464;-66
2021/11/09 14:23:30;;;;;;;11.73;8.00;;;14.80;99.90;;;;;;5112264;27;20467;-66
2021/11/09 14:25:58;;;;;;;6.97;6.13;;;14.70;99.80;;;;;;5112540;27;20468;-67
2021/11/09 14:28:38;;;;;;;8.73;7.20;;;14.70;99.40;;;;;;5112137;27;20460;-67
2021/11/09 14:31:14;;;;;;;10.83;7.37;;;14.70;99.30;;;;;;5112561;27;20531;-67
2021/11/09 14:33:41;;;;;;;14.13;9.20;;;14.70;99.40;;;;;;5112159;27;20535;-67
2021/11/09 14:36:26;;;;;;;9.00;6.00;;;14.70;99.30;;;;;;5112506;27;20465;-67
2021/11/09 14:39:12;;;;;;;6.10;4.17;;;14.70;99.40;;;;;;5112369;27;21271;-66
2021/11/09 14:42:02;;;;;;;6.97;3.83;;;14.70;99.00;;;;;;5112138;27;20475;-66
2021/11/09 14:44:31;;;;;;;4.07;2.83;;;14.60;99.00;;;;;;5112123;27;20541;-66
2021/11/09 14:46:58;;;;;;;3.63;2.13;;;14.60;98.80;;;;;;5112320;27;20449;-66